Time;durP1;ratioP1;P1;durP2;ratioP2;P2;SDS_P1;SDS_P2;PMS_P1;PMS_P2;Temp;Humidity;BMP_temperature;BMP_pressure;BME280_temperature;BME280_humidity;BME280_pressure;Samples;Min_cycle;Max_cycle;Signal;HPM_P1;HPM_P2
2023/07/17 00:01:46;;;;;;;;;;;;;;;28.05;56.61;99476.72;4482622;31;34116;-75
2023/07/17 00:04:19;;;;;;;;;;;;;;;28.11;56.80;99478.00;4489555;31;32936;-75
2023/07/17 00:06:47;;;;;;;;;;;;;;;28.12;56.72;99477.03;4487656;31;33481;-75
2023/07/17 00:09:20;;;;;;;;;;;;;;;27.95;57.22;99479.38;4484433;31;33834;-76
2023/07/17 00:11:48;;;;;;;;;;;;;;;28.00;56.49;99487.78;4484667;31;33504;-75
2023/07/17 00:14:17;;;;;;;;;;;;;;;27.94;56.70;99483.03;4482781;31;32883;-74
2023/07/17 00:16:48;;;;;;;;;;;;;;;28.00;56.66;99487.78;4495443;31;33740;-76
2023/07/17 00:19:18;;;;;;;;;;;;;;;28.03;56.87;99484.03;4490316;31;34026;-75
2023/07/17 00:21:49;;;;;;;;;;;;;;;28.03;56.91;99487.53;4491132;31;34437;-76
2023/07/17 00:24:22;;;;;;;;;;;;;;;27.92;56.80;99492.16;4491821;31;33079;-75
2023/07/17 00:26:50;;;;;;;;;;;;;;;27.98;56.74;99489.78;4492906;31;33879;-76
2023/07/17 00:29:20;;;;;;;;;;;;;;;27.95;56.96;99491.88;4487260;31;34221;-76
2023/07/17 00:31:54;;;;;;;;;;;;;;;27.92;56.65;99490.31;4476619;31;33717;-75
2023/07/17 00:34:24;;;;;;;;;;;;;;;27.84;57.49;99495.50;4479798;32;33942;-75
2023/07/17 00:36:53;;;;;;;;;;;;;;;27.82;57.93;99492.09;4478956;32;34631;-75
2023/07/17 00:39:26;;;;;;;;;;;;;;;27.91;57.06;99495.78;4484742;32;33575;-76
2023/07/17 00:41:56;;;;;;;;;;;;;;;27.84;57.66;99495.50;4479302;32;34462;-75
2023/07/17 00:44:27;;;;;;;;;;;;;;;27.88;57.55;99507.56;4481134;32;32836;-76
2023/07/17 00:46:58;;;;;;;;;;;;;;;27.87;57.64;99503.22;4494790;31;33525;-75
2023/07/17 00:49:27;;;;;;;;;;;;;;;27.94;57.51;99507.03;4494697;31;34784;-77
2023/07/17 00:51:56;;;;;;;;;;;;;;;27.89;57.55;99503.09;4489951;31;34422;-75
2023/07/17 00:54:25;;;;;;;;;;;;;;;27.84;57.93;99508.81;4479644;32;33971;-76
2023/07/17 00:56:57;;;;;;;;;;;;;;;27.82;57.75;99506.28;4480795;32;34573;-77
2023/07/17 00:59:29;;;;;;;;;;;;;;;27.67;57.92;99503.09;4479153;32;33840;-76
2023/07/17 01:02:21;;;;;;;;;;;;;;;27.79;57.54;99501.19;4482832;31;35020;-75
2023/07/17 01:04:54;;;;;;;;;;;;;;;27.71;57.90;99497.50;4500062;31;32818;-76
2023/07/17 01:07:23;;;;;;;;;;;;;;;27.65;57.65;99499.72;4493518;31;34203;-75
2023/07/17 01:09:54;;;;;;;;;;;;;;;27.59;57.81;99494.09;4481748;31;33853;-76
2023/07/17 01:12:27;;;;;;;;;;;;;;;27.77;57.02;99499.66;4493771;31;34447;-75
2023/07/17 01:14:57;;;;;;;;;;;;;;;27.61;58.05;99498.31;4485436;31;32820;-75
2023/07/17 01:17:33;;;;;;;;;;;;;;;27.73;57.27;99492.88;4484153;31;33958;-75
2023/07/17 01:20:06;;;;;;;;;;;;;;;27.62;57.61;99493.84;4486104;31;34310;-76
2023/07/17 01:22:45;;;;;;;;;;;;;;;27.49;58.41;99491.37;4487123;31;34212;-76
2023/07/17 01:25:15;;;;;;;;;;;;;;;27.37;58.81;99479.97;4480557;31;33117;-75
2023/07/17 01:27:44;;;;;;;;;;;;;;;27.27;58.82;99486.22;4485217;31;33911;-75
2023/07/17 01:30:12;;;;;;;;;;;;;;;27.41;58.19;99485.88;4482770;31;34769;-75
2023/07/17 01:32:42;;;;;;;;;;;;;;;27.28;59.28;99482.56;4484843;31;34579;-75
2023/07/17 01:35:15;;;;;;;;;;;;;;;27.38;58.89;99487.00;4493241;31;33940;-75
2023/07/17 01:37:44;;;;;;;;;;;;;;;27.46;58.04;99478.34;4479439;31;34875;-75
2023/07/17 01:40:15;;;;;;;;;;;;;;;27.21;59.08;99474.28;4491266;31;33485;-75
2023/07/17 01:42:46;;;;;;;;;;;;;;;27.31;58.76;99474.34;4486292;31;34899;-75
2023/07/17 01:45:18;;;;;;;;;;;;;;;27.32;58.60;99470.69;4480052;31;33342;-74
2023/07/17 01:47:50;;;;;;;;;;;;;;;27.26;58.79;99477.41;4478537;32;34867;-75
2023/07/17 01:50:19;;;;;;;;;;;;;;;27.12;59.33;99481.22;4492430;31;33741;-75
2023/07/17 01:52:48;;;;;;;;;;;;;;;27.12;59.50;99481.22;4482590;31;35666;-75
2023/07/17 01:55:19;;;;;;;;;;;;;;;27.00;60.10;99485.75;4479223;31;33180;-76
2023/07/17 01:57:58;;;;;;;;;;;;;;;27.26;58.77;99487.22;4480645;31;34004;-75
2023/07/17 02:00:27;;;;;;;;;;;;;;;27.08;59.73;99489.59;4480975;31;33770;-76
2023/07/17 02:03:02;;;;;;;;;;;;;;;27.04;59.77;99497.00;4491850;31;34288;-75
2023/07/17 02:05:42;;;;;;;;;;;;;;;27.09;59.16;99496.63;4487924;31;32893;-75
2023/07/17 02:08:11;;;;;;;;;;;;;;;26.99;59.64;99507.19;4481170;31;34643;-76
2023/07/17 02:10:51;;;;;;;;;;;;;;;26.85;60.39;99513.69;4482975;31;34619;-77
2023/07/17 02:13:22;;;;;;;;;;;;;;;26.97;59.79;99514.47;4482863;31;34294;-76
2023/07/17 02:15:51;;;;;;;;;;;;;;;26.77;60.26;99509.00;4490379;31;33760;-75
2023/07/17 02:18:24;;;;;;;;;;;;;;;26.80;59.80;99515.88;4479396;31;34064;-75
2023/07/17 02:20:55;;;;;;;;;;;;;;;26.68;60.95;99519.56;4478447;31;35677;-76
2023/07/17 02:23:34;;;;;;;;;;;;;;;26.59;60.34;99522.00;4478825;31;34786;-75
2023/07/17 02:26:06;;;;;;;;;;;;;;;26.73;60.13;99520.87;4490021;31;33175;-75
2023/07/17 02:28:41;;;;;;;;;;;;;;;26.70;60.41;99522.94;4484456;31;34816;-76
2023/07/17 02:31:13;;;;;;;;;;;;;;;26.64;60.81;99534.94;4488921;31;34996;-76
2023/07/17 02:33:42;;;;;;;;;;;;;;;26.68;60.68;99528.41;4494062;31;34372;-76
2023/07/17 02:36:15;;;;;;;;;;;;;;;26.62;60.63;99542.19;4496186;31;33238;-76
2023/07/17 02:38:45;;;;;;;;;;;;;;;26.69;60.67;99545.19;4494167;31;34647;-76
2023/07/17 02:41:17;;;;;;;;;;;;;;;26.62;60.41;99550.19;4499879;31;34655;-75
2023/07/17 02:43:47;;;;;;;;;;;;;;;26.83;59.64;99557.38;4481261;31;34087;-75
2023/07/17 02:46:18;;;;;;;;;;;;;;;26.72;59.93;99558.25;4480103;32;32360;-75
2023/07/17 02:51:21;;;;;;;;;;;;;;;26.49;61.39;99558.28;4483849;32;34322;-75
2023/07/17 02:53:51;;;;;;;;;;;;;;;26.48;60.79;99561.94;4479648;32;33998;-76
2023/07/17 02:56:23;;;;;;;;;;;;;;;26.45;60.26;99550.69;4477948;31;33733;-75
2023/07/17 02:58:54;;;;;;;;;;;;;;;26.24;61.11;99553.25;4477191;31;34211;-77
2023/07/17 03:01:23;;;;;;;;;;;;;;;26.44;60.70;99552.50;4487144;31;34073;-75
2023/07/17 03:03:54;;;;;;;;;;;;;;;26.51;60.21;99555.53;4497718;31;34241;-74
2023/07/17 03:06:23;;;;;;;;;;;;;;;26.56;59.59;99558.69;4478791;31;33001;-76
2023/07/17 03:08:54;;;;;;;;;;;;;;;26.45;59.52;99556.84;4477249;31;34139;-76
2023/07/17 03:11:32;;;;;;;;;;;;;;;26.39;60.51;99554.69;4482379;31;34860;-75
2023/07/17 03:14:09;;;;;;;;;;;;;;;26.51;60.13;99552.84;4497180;31;34237;-75
2023/07/17 03:16:39;;;;;;;;;;;;;;;26.50;60.12;99554.66;4490412;31;33486;-76
2023/07/17 03:19:11;;;;;;;;;;;;;;;26.39;60.54;99554.69;4490428;31;33264;-76
2023/07/17 03:21:43;;;;;;;;;;;;;;;26.53;59.95;99554.47;4482976;31;35057;-76
2023/07/17 03:24:13;;;;;;;;;;;;;;;26.49;60.33;99560.13;4483565;31;34948;-76
2023/07/17 03:26:51;;;;;;;;;;;;;;;26.60;59.90;99552.97;4489489;31;33086;-76
2023/07/17 03:29:20;;;;;;;;;;;;;;;26.65;59.09;99552.59;4482747;31;34132;-75
2023/07/17 03:31:56;;;;;;;;;;;;;;;26.50;60.16;99546.66;4481449;31;34933;-76
2023/07/17 03:34:25;;;;;;;;;;;;;;;26.52;59.66;99550.06;4476566;31;34767;-75
2023/07/17 03:36:55;;;;;;;;;;;;;;;26.54;59.94;99552.63;4477346;31;34630;-75
2023/07/17 03:39:24;;;;;;;;;;;;;;;26.70;59.09;99550.41;4482381;31;33605;-76
2023/07/17 03:41:56;;;;;;;;;;;;;;;26.74;59.85;99561.63;4453686;31;1104061;-75
2023/07/17 03:44:25;;;;;;;;;;;;;;;26.69;59.67;99553.19;4492612;31;34784;-75
2023/07/17 03:46:59;;;;;;;;;;;;;;;26.77;58.87;99551.59;4485183;31;33213;-75
2023/07/17 03:49:31;;;;;;;;;;;;;;;26.73;59.34;99544.81;4488392;31;33913;-75
2023/07/17 03:52:01;;;;;;;;;;;;;;;26.83;59.12;99552.06;4492237;31;34418;-75
2023/07/17 03:54:30;;;;;;;;;;;;;;;26.54;60.27;99547.31;4478376;32;34365;-77
2023/07/17 03:57:04;;;;;;;;;;;;;;;26.80;59.60;99561.97;4493853;31;33737;-76
2023/07/17 03:59:46;;;;;;;;;;;;;;;26.78;59.62;99553.25;4492983;31;33118;-76
2023/07/17 04:02:19;;;;;;;;;;;;;;;26.89;59.37;99555.03;4493592;31;34567;-76
2023/07/17 04:04:50;;;;;;;;;;;;;;;26.94;59.59;99546.66;4498411;31;34479;-76
2023/07/17 04:07:21;;;;;;;;;;;;;;;27.04;58.26;99555.59;4494057;31;33749;-76
2023/07/17 04:09:50;;;;;;;;;;;;;;;26.91;58.58;99554.91;4479073;31;32682;-75
2023/07/17 04:12:24;;;;;;;;;;;;;;;26.94;58.63;99554.62;4480053;31;33691;-75
2023/07/17 04:14:53;;;;;;;;;;;;;;;27.13;59.20;99552.13;4492863;31;34144;-77
2023/07/17 04:17:22;;;;;;;;;;;;;;;27.23;58.36;99552.22;4481192;31;33578;-76
2023/07/17 04:19:51;;;;;;;;;;;;;;;27.29;58.56;99554.38;4478438;31;33808;-76
2023/07/17 04:22:23;;;;;;;;;;;;;;;27.12;59.35;99555.78;4483280;31;35048;-76
2023/07/17 04:24:53;;;;;;;;;;;;;;;27.09;59.65;99552.53;4483850;31;34123;-76
2023/07/17 04:27:26;;;;;;;;;;;;;;;27.47;58.94;99556.44;4486774;31;33275;-75
2023/07/17 04:29:55;;;;;;;;;;;;;;;27.54;58.75;99557.59;4494773;31;33692;-75
2023/07/17 04:32:24;;;;;;;;;;;;;;;27.61;58.35;99558.75;4494815;31;34037;-76
2023/07/17 04:34:53;;;;;;;;;;;;;;;27.58;58.74;99562.53;4495134;31;34914;-76
2023/07/17 04:37:29;;;;;;;;;;;;;;;27.75;58.23;99568.22;4500775;31;33587;-75
2023/07/17 04:39:58;;;;;;;;;;;;;;;27.84;57.79;99559.47;4494424;31;33812;-77
2023/07/17 04:42:30;;;;;;;;;;;;;;;28.00;57.18;99564.28;4479583;32;34363;-77
2023/07/17 04:44:59;;;;;;;;;;;;;;;28.26;56.54;99556.66;4481599;31;35694;-75
2023/07/17 04:47:32;;;;;;;;;;;;;;;28.45;56.75;99567.41;4486239;31;33498;-76
2023/07/17 04:50:02;;;;;;;;;;;;;;;28.94;55.19;99567.44;4500219;31;34003;-75
2023/07/17 04:52:32;;;;;;;;;;;;;;;29.30;54.43;99567.72;4495111;31;34435;-75
2023/07/17 04:55:01;;;;;;;;;;;;;;;29.89;51.46;99569.25;4496698;31;34444;-76
2023/07/17 04:57:36;;;;;;;;;;;;;;;30.32;50.64;99564.28;4481101;31;33324;-76
2023/07/17 05:00:08;;;;;;;;;;;;;;;30.96;49.06;99565.94;4482402;31;35402;-76
2023/07/17 05:02:42;;;;;;;;;;;;;;;31.92;46.45;99564.25;4483846;31;34105;-77
2023/07/17 05:05:19;;;;;;;;;;;;;;;32.46;44.76;99571.00;4480295;31;34964;-76
2023/07/17 05:07:49;;;;;;;;;;;;;;;33.07;42.40;99566.25;4478080;31;33189;-76
2023/07/17 05:10:19;;;;;;;;;;;;;;;33.32;42.18;99566.22;4478208;31;34222;-77
2023/07/17 05:12:49;;;;;;;;;;;;;;;33.93;40.68;99575.53;4498060;31;34183;-77
2023/07/17 05:15:17;;;;;;;;;;;;;;;34.22;39.56;99573.28;4484144;31;35511;-77
2023/07/17 05:17:46;;;;;;;;;;;;;;;34.45;39.84;99573.31;4486307;31;33090;-76
2023/07/17 05:20:16;;;;;;;;;;;;;;;34.60;38.61;99579.63;4477776;31;34097;-78
2023/07/17 05:22:48;;;;;;;;;;;;;;;34.53;39.00;99570.56;4489675;31;34222;-77
2023/07/17 05:25:24;;;;;;;;;;;;;;;34.59;39.16;99575.25;4483904;31;35080;-76
2023/07/17 05:27:54;;;;;;;;;;;;;;;34.67;39.14;99569.81;4488856;31;34062;-78
2023/07/17 05:30:23;;;;;;;;;;;;;;;34.84;38.61;99565.16;4491146;31;35023;-76
2023/07/17 05:32:52;;;;;;;;;;;;;;;34.73;38.94;99570.97;4489685;31;35692;-77
2023/07/17 05:35:23;;;;;;;;;;;;;;;34.76;37.78;99576.00;4485929;31;34789;-76
2023/07/17 05:37:55;;;;;;;;;;;;;;;34.76;37.35;99571.44;4487257;31;33241;-77
2023/07/17 05:40:28;;;;;;;;;;;;;;;34.74;38.57;99573.47;4487861;31;33758;-77
2023/07/17 05:43:01;;;;;;;;;;;;;;;34.79;37.99;99568.38;4479176;31;35372;-76
2023/07/17 05:45:38;;;;;;;;;;;;;;;34.62;37.98;99573.03;4482580;31;34053;-76
2023/07/17 05:48:13;;;;;;;;;;;;;;;34.62;37.33;99573.03;4483610;31;33738;-77
2023/07/17 05:50:43;;;;;;;;;;;;;;;34.86;36.90;99567.66;4481554;31;34273;-77
2023/07/17 05:53:11;;;;;;;;;;;;;;;34.91;36.96;99571.50;4480029;31;35019;-76
2023/07/17 05:55:41;;;;;;;;;;;;;;;34.96;36.88;99568.25;4479111;31;34172;-76
2023/07/17 05:58:15;;;;;;;;;;;;;;;34.59;37.46;99577.94;4485999;31;35575;-77
2023/07/17 06:00:44;;;;;;;;;;;;;;;34.57;37.69;99580.78;4490619;31;34116;-76
2023/07/17 06:03:17;;;;;;;;;;;;;;;34.65;36.99;99585.34;4490713;31;34127;-77
2023/07/17 06:05:46;;;;;;;;;;;;;;;34.56;37.89;99584.53;4478344;31;33814;-77
2023/07/17 06:08:16;;;;;;;;;;;;;;;34.48;37.74;99586.41;4486956;31;33317;-77
2023/07/17 06:10:46;;;;;;;;;;;;;;;34.45;37.41;99581.37;4489682;31;34513;-76
2023/07/17 06:13:20;;;;;;;;;;;;;;;34.06;38.31;99580.38;4489418;31;34307;-77
2023/07/17 06:15:49;;;;;;;;;;;;;;;33.67;38.45;99583.03;4484711;31;33740;-77
2023/07/17 06:18:18;;;;;;;;;;;;;;;33.32;39.26;99579.69;4483919;31;33960;-77
2023/07/17 06:20:47;;;;;;;;;;;;;;;33.32;38.94;99574.31;4484465;31;35075;-76
2023/07/17 06:23:15;;;;;;;;;;;;;;;32.98;40.04;99575.28;4491331;31;34307;-76
2023/07/17 06:26:00;;;;;;;;;;;;;;;33.08;39.77;99569.78;4484915;31;34187;-77
2023/07/17 06:28:34;;;;;;;;;;;;;;;32.66;39.44;99568.06;4485102;31;33567;-77
2023/07/17 06:31:06;;;;;;;;;;;;;;;32.64;39.29;99570.91;4481365;31;33801;-76
2023/07/17 06:33:35;;;;;;;;;;;;;;;32.16;40.48;99577.81;4491219;31;33673;-77
2023/07/17 06:36:05;;;;;;;;;;;;;;;32.59;39.30;99583.16;4483615;31;34425;-76
2023/07/17 06:38:34;;;;;;;;;;;;;;;32.35;39.73;99573.16;4480578;31;33405;-75
2023/07/17 06:41:03;;;;;;;;;;;;;;;32.10;40.96;99575.75;4483574;31;34494;-77
2023/07/17 06:43:36;;;;;;;;;;;;;;;32.15;40.80;99570.75;4484620;31;33516;-76
2023/07/17 06:46:06;;;;;;;;;;;;;;;32.10;41.89;99576.59;4496757;31;34193;-77
2023/07/17 06:48:36;;;;;;;;;;;;;;;32.24;41.92;99575.16;4488471;31;32637;-77
2023/07/17 06:51:09;;;;;;;;;;;;;;;32.60;41.00;99574.09;4484431;31;34292;-77
2023/07/17 06:53:38;;;;;;;;;;;;;;;32.72;40.94;99570.94;4485888;31;34273;-76
2023/07/17 06:56:13;;;;;;;;;;;;;;;32.61;40.81;99565.03;4487921;31;34936;-77
2023/07/17 06:58:43;;;;;;;;;;;;;;;32.72;39.03;99562.88;4487252;31;33729;-77
2023/07/17 07:01:14;;;;;;;;;;;;;;;32.73;39.94;99569.91;4486730;31;34688;-76
2023/07/17 07:03:43;;;;;;;;;;;;;;;32.64;39.33;99562.84;4494311;31;34086;-77
2023/07/17 07:06:14;;;;;;;;;;;;;;;32.54;39.98;99572.06;4488358;31;33989;-76
2023/07/17 07:08:44;;;;;;;;;;;;;;;32.28;39.96;99563.09;4487691;31;35426;-76
2023/07/17 07:11:14;;;;;;;;;;;;;;;32.69;38.13;99563.22;4485650;31;33905;-77
2023/07/17 07:13:46;;;;;;;;;;;;;;;32.65;39.00;99564.53;4483075;31;34407;-76
2023/07/17 07:16:15;;;;;;;;;;;;;;;32.86;38.14;99569.44;4483989;31;34220;-76
2023/07/17 07:18:45;;;;;;;;;;;;;;;33.07;37.77;99565.44;4481666;31;33289;-76
2023/07/17 07:21:18;;;;;;;;;;;;;;;32.57;38.79;99569.88;4492409;31;34128;-77
2023/07/17 07:23:49;;;;;;;;;;;;;;;32.94;37.75;99572.13;4478119;31;34353;-77
2023/07/17 07:26:20;;;;;;;;;;;;;;;33.05;38.17;99562.91;4479830;31;34704;-76
2023/07/17 07:28:50;;;;;;;;;;;;;;;32.95;38.40;99562.19;4484328;31;33162;-77
2023/07/17 07:31:19;;;;;;;;;;;;;;;32.97;38.49;99559.34;4477334;31;34043;-76
2023/07/17 07:33:49;;;;;;;;;;;;;;;33.39;38.47;99563.72;4482976;31;34949;-77
2023/07/17 07:36:18;;;;;;;;;;;;;;;33.06;37.33;99566.44;4488092;31;34546;-76
2023/07/17 07:38:51;;;;;;;;;;;;;;;33.31;37.26;99557.34;4476451;31;33212;-77
2023/07/17 07:41:24;;;;;;;;;;;;;;;33.50;35.67;99558.81;4481180;31;33746;-76
2023/07/17 07:43:54;;;;;;;;;;;;;;;33.51;36.31;99555.09;4483922;31;34019;-78
2023/07/17 07:46:23;;;;;;;;;;;;;;;33.40;36.60;99552.78;4484861;31;33666;-77
2023/07/17 07:48:52;;;;;;;;;;;;;;;33.20;36.62;99555.03;4477457;32;33248;-76
2023/07/17 07:51:25;;;;;;;;;;;;;;;33.69;35.42;99560.31;4482209;31;34584;-75
2023/07/17 07:53:54;;;;;;;;;;;;;;;33.22;36.13;99558.34;4485621;31;33956;-76
2023/07/17 07:56:26;;;;;;;;;;;;;;;33.31;35.53;99559.19;4488654;31;34951;-77
2023/07/17 07:58:57;;;;;;;;;;;;;;;33.63;34.51;99554.78;4483782;31;33155;-76
2023/07/17 08:01:25;;;;;;;;;;;;;;;33.34;35.34;99558.84;4482194;31;35156;-76
2023/07/17 08:03:57;;;;;;;;;;;;;;;33.47;35.53;99561.88;4480039;31;34870;-76
2023/07/17 08:06:32;;;;;;;;;;;;;;;33.93;34.13;99562.09;4487433;31;34488;-76
2023/07/17 08:09:02;;;;;;;;;;;;;;;33.69;35.74;99560.31;4482664;31;33824;-76
2023/07/17 08:11:31;;;;;;;;;;;;;;;33.38;35.75;99559.34;4481762;31;34537;-76
2023/07/17 08:14:02;;;;;;;;;;;;;;;33.90;34.23;99558.87;4482295;31;34623;-76
2023/07/17 08:16:44;;;;;;;;;;;;;;;33.90;35.03;99559.75;4481479;31;34517;-77
2023/07/17 08:19:16;;;;;;;;;;;;;;;33.75;35.19;99550.72;4486431;31;32918;-77
2023/07/17 08:21:45;;;;;;;;;;;;;;;33.47;36.35;99555.66;4480387;31;34286;-77
2023/07/17 08:24:14;;;;;;;;;;;;;;;33.79;35.16;99550.19;4479214;31;34833;-76
2023/07/17 08:26:46;;;;;;;;;;;;;;;33.74;34.95;99547.19;4484593;31;34638;-76
2023/07/17 08:29:19;;;;;;;;;;;;;;;33.63;35.85;99555.62;4483333;31;33446;-76
2023/07/17 08:31:48;;;;;;;;;;;;;;;33.90;35.15;99557.06;4497264;31;35052;-76
2023/07/17 08:34:20;;;;;;;;;;;;;;;34.31;34.34;99558.72;4484029;31;33945;-77
2023/07/17 08:36:49;;;;;;;;;;;;;;;34.06;34.95;99555.31;4484018;31;34416;-76
2023/07/17 08:39:19;;;;;;;;;;;;;;;34.39;34.20;99559.53;4484186;31;34326;-77
2023/07/17 08:41:50;;;;;;;;;;;;;;;33.87;34.72;99565.47;4483925;31;34709;-76
2023/07/17 08:44:24;;;;;;;;;;;;;;;33.94;34.62;99569.13;4487832;31;35300;-77
2023/07/17 08:46:53;;;;;;;;;;;;;;;33.95;34.84;99568.16;4481915;32;33972;-76
2023/07/17 08:49:22;;;;;;;;;;;;;;;34.36;34.12;99572.50;4488488;31;34239;-76
2023/07/17 08:51:53;;;;;;;;;;;;;;;34.36;33.72;99567.97;4485781;31;34735;-77
2023/07/17 08:54:26;;;;;;;;;;;;;;;34.95;32.79;99566.59;4487038;31;34407;-76
2023/07/17 08:56:58;;;;;;;;;;;;;;;34.51;33.56;99569.91;4484137;31;33798;-76
2023/07/17 08:59:29;;;;;;;;;;;;;;;34.72;32.68;99563.88;4484804;31;33319;-77
2023/07/17 09:01:58;;;;;;;;;;;;;;;34.85;33.29;99566.84;4476960;31;34003;-76
2023/07/17 09:04:28;;;;;;;;;;;;;;;35.19;32.78;99565.56;4481278;31;34975;-77
2023/07/17 09:06:57;;;;;;;;;;;;;;;34.89;32.47;99562.75;4484586;31;34740;-76
2023/07/17 09:09:26;;;;;;;;;;;;;;;34.83;32.76;99563.47;4478461;31;33613;-77
2023/07/17 09:12:16;;;;;;;;;;;;;;;34.88;33.26;99565.63;4479711;31;34171;-77
2023/07/17 09:14:46;;;;;;;;;;;;;;;35.21;32.57;99566.22;4486792;31;33924;-78
2023/07/17 09:17:20;;;;;;;;;;;;;;;35.04;32.06;99560.13;4489818;31;34511;-77
2023/07/17 09:19:49;;;;;;;;;;;;;;;34.81;33.69;99554.72;4492855;31;33202;-76
2023/07/17 09:22:24;;;;;;;;;;;;;;;35.05;32.33;99553.69;4479241;31;34781;-77
2023/07/17 09:24:53;;;;;;;;;;;;;;;35.23;32.81;99551.53;4490722;31;34190;-76
2023/07/17 09:27:26;;;;;;;;;;;;;;;34.95;33.97;99558.50;4480916;31;32721;-76
2023/07/17 09:30:00;;;;;;;;;;;;;;;35.61;31.99;99559.59;4487755;31;33602;-76
2023/07/17 09:32:32;;;;;;;;;;;;;;;35.46;31.81;99553.34;4484742;31;34227;-76
2023/07/17 09:35:05;;;;;;;;;;;;;;;35.77;32.48;99553.19;4491595;31;34951;-76
2023/07/17 09:37:36;;;;;;;;;;;;;;;35.73;31.95;99551.03;4487914;31;33701;-76
2023/07/17 09:40:11;;;;;;;;;;;;;;;35.54;31.99;99557.78;4484229;31;33728;-76
2023/07/17 09:42:46;;;;;;;;;;;;;;;35.09;32.49;99552.31;4490754;31;34178;-77
2023/07/17 09:45:16;;;;;;;;;;;;;;;35.71;31.86;99555.78;4482186;31;34401;-76
2023/07/17 09:47:49;;;;;;;;;;;;;;;36.09;32.23;99556.53;4487296;31;33960;-77
2023/07/17 09:50:18;;;;;;;;;;;;;;;36.06;32.50;99555.00;4483401;31;32828;-78
2023/07/17 09:52:51;;;;;;;;;;;;;;;36.29;33.17;99554.06;4486631;31;34434;-76
2023/07/17 09:55:20;;;;;;;;;;;;;;;36.39;31.48;99545.66;4485353;31;34959;-75
2023/07/17 09:57:53;;;;;;;;;;;;;;;36.69;33.22;99554.53;4482970;31;35229;-77
2023/07/17 10:00:26;;;;;;;;;;;;;;;36.66;31.87;99547.62;4481393;31;33425;-75
2023/07/17 10:02:59;;;;;;;;;;;;;;;36.90;31.40;99542.88;4484626;31;33279;-75
2023/07/17 10:05:29;;;;;;;;;;;;;;;36.87;30.59;99546.78;4484845;31;33570;-77
2023/07/17 10:08:01;;;;;;;;;;;;;;;37.18;31.03;99542.91;4492607;31;33549;-75
2023/07/17 10:10:31;;;;;;;;;;;;;;;37.50;31.38;99538.78;4478584;32;32589;-77
2023/07/17 10:13:00;;;;;;;;;;;;;;;37.70;30.10;99541.63;4485116;31;33940;-78
2023/07/17 10:15:32;;;;;;;;;;;;;;;37.49;30.27;99533.53;4493665;31;34513;-76
2023/07/17 10:18:01;;;;;;;;;;;;;;;37.42;28.67;99532.66;4484565;31;34531;-76
2023/07/17 10:20:37;;;;;;;;;;;;;;;37.23;30.14;99532.31;4485452;31;34019;-77
2023/07/17 10:23:08;;;;;;;;;;;;;;;36.68;30.96;99529.37;4485709;31;34512;-76
2023/07/17 10:25:45;;;;;;;;;;;;;;;37.44;28.80;99522.47;4499798;31;33670;-77
2023/07/17 10:28:16;;;;;;;;;;;;;;;37.71;29.05;99520.78;4478785;31;34098;-76
2023/07/17 10:30:50;;;;;;;;;;;;;;;38.08;30.07;99527.66;4484168;32;33323;-78
2023/07/17 10:33:23;;;;;;;;;;;;;;;38.29;28.56;99521.25;4484103;31;34817;-77
2023/07/17 10:35:52;;;;;;;;;;;;;;;38.41;28.78;99513.34;4480062;31;34007;-76
2023/07/17 10:38:23;;;;;;;;;;;;;;;38.18;28.24;99511.84;4485614;31;35229;-76
2023/07/17 10:41:01;;;;;;;;;;;;;;;38.31;28.08;99510.22;4481963;31;33073;-76
2023/07/17 10:43:33;;;;;;;;;;;;;;;38.32;28.67;99498.31;4487966;31;34122;-76
2023/07/17 10:46:09;;;;;;;;;;;;;;;38.56;28.28;99500.47;4483931;31;33948;-76
2023/07/17 10:48:37;;;;;;;;;;;;;;;38.68;27.78;99495.25;4478346;31;34876;-77
2023/07/17 10:51:08;;;;;;;;;;;;;;;38.80;27.54;99506.31;4483189;31;33591;-78
2023/07/17 10:53:36;;;;;;;;;;;;;;;38.48;28.53;99503.38;4486375;31;33117;-77
2023/07/17 10:56:10;;;;;;;;;;;;;;;38.06;28.85;99504.50;4477624;31;34415;-76
2023/07/17 10:58:39;;;;;;;;;;;;;;;37.91;29.34;99505.47;4477742;31;33993;-77
2023/07/17 11:01:13;;;;;;;;;;;;;;;37.55;29.73;99497.59;4483588;31;33859;-76
2023/07/17 11:03:44;;;;;;;;;;;;;;;37.37;30.54;99496.22;4484242;31;35227;-76
2023/07/17 11:06:20;;;;;;;;;;;;;;;37.43;31.27;99496.44;4495494;31;33843;-76
2023/07/17 11:08:57;;;;;;;;;;;;;;;37.25;31.20;99495.09;4481557;31;34433;-76
2023/07/17 11:11:26;;;;;;;;;;;;;;;37.06;31.45;99488.50;4477730;32;33284;-77
2023/07/17 11:13:55;;;;;;;;;;;;;;;36.98;31.84;99477.81;4480383;32;34544;-77
2023/07/17 11:16:25;;;;;;;;;;;;;;;36.78;31.96;99485.78;4478567;32;33854;-77
2023/07/17 11:18:57;;;;;;;;;;;;;;;36.63;31.82;99483.16;4482849;32;34188;-76
2023/07/17 11:21:27;;;;;;;;;;;;;;;36.65;33.04;99481.09;4478758;31;34485;-76
2023/07/17 11:23:58;;;;;;;;;;;;;;;36.61;33.63;99478.97;4484523;31;34524;-78
2023/07/17 11:26:31;;;;;;;;;;;;;;;36.50;32.17;99475.72;4494310;31;34993;-78
2023/07/17 11:29:05;;;;;;;;;;;;;;;36.65;31.79;99472.97;4499285;31;35132;-77
2023/07/17 11:31:35;;;;;;;;;;;;;;;37.00;31.98;99464.12;4498279;31;33800;-77
2023/07/17 11:34:11;;;;;;;;;;;;;;;37.46;29.67;99463.59;4488428;31;33812;-76
2023/07/17 11:36:43;;;;;;;;;;;;;;;37.95;30.17;99457.16;4482542;31;35032;-76
2023/07/17 11:39:12;;;;;;;;;;;;;;;38.08;29.99;99446.41;4481785;31;34937;-76
2023/07/17 11:41:42;;;;;;;;;;;;;;;38.06;28.96;99444.91;4485358;31;33224;-77
2023/07/17 11:44:11;;;;;;;;;;;;;;;38.54;28.80;99439.38;4482667;31;33854;-78
2023/07/17 11:46:45;;;;;;;;;;;;;;;38.83;28.22;99435.38;4482005;31;34009;-78
2023/07/17 11:49:15;;;;;;;;;;;;;;;39.09;27.81;99436.44;4479240;31;34546;-77
2023/07/17 11:51:50;;;;;;;;;;;;;;;39.31;28.07;99435.13;4487706;31;33029;-76
2023/07/17 11:54:19;;;;;;;;;;;;;;;39.85;27.55;99424.94;4499455;31;35312;-77
2023/07/17 11:56:50;;;;;;;;;;;;;;;39.92;25.04;99427.59;4488607;31;33933;-76
2023/07/17 11:59:19;;;;;;;;;;;;;;;40.25;24.75;99425.53;4486533;31;34737;-76
2023/07/17 12:01:52;;;;;;;;;;;;;;;40.45;24.92;99428.13;4480773;31;33014;-77
2023/07/17 12:04:21;;;;;;;;;;;;;;;40.53;24.76;99427.00;4490617;31;33897;-76
2023/07/17 12:06:53;;;;;;;;;;;;;;;40.93;23.69;99415.75;4484371;31;34455;-77
2023/07/17 12:09:24;;;;;;;;;;;;;;;40.98;22.96;99421.34;4479879;31;34211;-77
2023/07/17 12:11:54;;;;;;;;;;;;;;;40.77;21.44;99410.94;4481270;31;33935;-78
2023/07/17 12:14:23;;;;;;;;;;;;;;;41.22;21.94;99418.84;4480351;31;34213;-78
2023/07/17 12:16:56;;;;;;;;;;;;;;;41.50;20.32;99419.13;4490027;31;34200;-77
2023/07/17 12:19:25;;;;;;;;;;;;;;;41.32;19.51;99413.69;4483435;31;34509;-76
2023/07/17 12:21:57;;;;;;;;;;;;;;;41.45;20.52;99416.25;4485756;31;33258;-78
2023/07/17 12:24:27;;;;;;;;;;;;;;;41.55;20.91;99416.56;4486108;31;33817;-76
2023/07/17 12:27:00;;;;;;;;;;;;;;;41.35;21.81;99402.34;4485979;31;35023;-77
2023/07/17 12:29:35;;;;;;;;;;;;;;;41.34;21.87;99397.97;4489206;31;33979;-77
2023/07/17 12:32:05;;;;;;;;;;;;;;;41.32;22.59;99405.50;4487264;31;33275;-77
2023/07/17 12:34:36;;;;;;;;;;;;;;;41.42;23.30;99402.25;4481870;31;33714;-77
2023/07/17 12:37:07;;;;;;;;;;;;;;;41.83;21.87;99393.38;4491023;31;33227;-77
2023/07/17 12:39:39;;;;;;;;;;;;;;;41.69;22.84;99398.16;4494825;31;34587;-76
2023/07/17 12:42:11;;;;;;;;;;;;;;;41.54;22.90;99406.75;4494978;31;33446;-76
2023/07/17 12:44:41;;;;;;;;;;;;;;;41.35;23.37;99405.09;4490295;31;34538;-77
2023/07/17 12:47:12;;;;;;;;;;;;;;;40.82;24.30;99387.44;4480927;31;34371;-77
2023/07/17 12:49:43;;;;;;;;;;;;;;;40.27;25.06;99395.41;4487168;31;32812;-76
2023/07/17 12:52:13;;;;;;;;;;;;;;;40.15;25.79;99397.97;4487933;31;35106;-76
2023/07/17 12:54:48;;;;;;;;;;;;;;;40.10;26.50;99390.50;4484786;31;34889;-77
2023/07/17 12:57:17;;;;;;;;;;;;;;;39.87;27.55;99388.38;4477689;31;33996;-78
2023/07/17 12:59:46;;;;;;;;;;;;;;;39.84;29.19;99396.94;4478381;31;35348;-76
2023/07/17 13:02:18;;;;;;;;;;;;;;;39.12;28.61;99400.72;4483675;31;34024;-77
2023/07/17 13:04:50;;;;;;;;;;;;;;;38.91;27.56;99396.44;4480204;31;35606;-77
2023/07/17 13:07:19;;;;;;;;;;;;;;;38.51;27.99;99385.59;4490688;31;33642;-77
2023/07/17 13:09:49;;;;;;;;;;;;;;;38.33;28.55;99388.91;4486653;31;34619;-76
2023/07/17 13:12:17;;;;;;;;;;;;;;;38.03;29.52;99381.16;4486734;31;34251;-76